Westover AFB, Massachusetts
Current Conditions -  °F | °C
As of 10:14 PM on Saturday 25 Oct 2014 (Local Time) from KCEF Reporting Station
Broken Clouds Broken Clouds  
Wind Chill: 55°   Ceiling: 11000
Heat Index: 55°   Visibility: 10mi
Dew Point: 45°   Wind: 6mph
Humidity: 67%   Direction: 200°SSW
Pressure: 29.53"   Gusts: NA
Location:  42.1968°N, 72.5424°W
Report Text: KCEF 260214Z AUTO 20005KT 10SM FEW011 SCT065 SCT080 BKN110 13/07 A2953 RMK AO2
Loading
Personal Weather Stations






























Interactive Weather Map
Tropical Storm Tracking
New forecast layout! Learn more

10-Day Weather Forecast

Advertisements
Track Severe Weather on mobile